createdAt,value
2023-03-13T00:01:51.810Z,41.68
2023-03-13T00:05:14.140Z,41.69
2023-03-13T00:08:36.325Z,41.60
2023-03-13T00:11:58.154Z,41.71
2023-03-13T00:15:19.838Z,41.79
2023-03-13T00:18:47.217Z,41.71
2023-03-13T00:22:08.997Z,41.79
2023-03-13T00:25:31.172Z,41.83
2023-03-13T00:28:53.659Z,41.81
2023-03-13T00:32:15.767Z,41.82
2023-03-13T00:35:37.811Z,41.84
2023-03-13T00:39:01.421Z,41.69
2023-03-13T00:42:23.179Z,41.74
2023-03-13T00:45:44.928Z,41.79
2023-03-13T00:49:07.059Z,41.72
2023-03-13T00:52:28.710Z,41.74
2023-03-13T00:55:53.530Z,41.76
2023-03-13T00:59:15.794Z,41.72
2023-03-13T01:02:42.491Z,41.73
2023-03-13T01:06:06.929Z,41.80
2023-03-13T01:09:28.665Z,41.91
2023-03-13T01:12:50.400Z,41.77
2023-03-13T01:16:18.627Z,41.84
2023-03-13T01:19:40.382Z,41.89
2023-03-13T01:23:03.511Z,41.92
2023-03-13T01:26:26.180Z,42.01
2023-03-13T01:29:48.777Z,41.98
2023-03-13T01:33:10.478Z,41.86
2023-03-13T01:36:32.344Z,41.92
2023-03-13T01:39:54.136Z,41.89
2023-03-13T01:43:27.928Z,41.89
2023-03-13T01:46:52.635Z,41.83
2023-03-13T01:50:20.291Z,41.77
2023-03-13T01:54:18.639Z,41.87
2023-03-13T01:57:43.344Z,41.85
2023-03-13T02:01:05.974Z,41.93
2023-03-13T02:04:31.505Z,42.08
2023-03-13T02:08:24.270Z,41.90
2023-03-13T02:12:05.181Z,42.03
2023-03-13T02:15:27.790Z,41.97
2023-03-13T02:18:49.665Z,41.87
2023-03-13T02:22:29.909Z,41.96
2023-03-13T02:25:53.551Z,42.03
2023-03-13T02:29:18.736Z,41.93
2023-03-13T02:32:41.184Z,42.03
2023-03-13T02:36:03.556Z,42.11
2023-03-13T02:39:26.052Z,42.04
2023-03-13T02:42:48.800Z,42.05
2023-03-13T02:46:17.525Z,42.24
2023-03-13T02:49:40.985Z,42.21
2023-03-13T02:53:05.890Z,42.23
2023-03-13T02:56:30.073Z,42.31
2023-03-13T02:59:51.931Z,42.33
2023-03-13T03:03:13.945Z,42.33
2023-03-13T03:06:35.621Z,42.45
2023-03-13T03:09:58.187Z,42.43
2023-03-13T03:13:19.891Z,42.40
2023-03-13T03:16:41.837Z,42.33
2023-03-13T03:20:07.964Z,42.47
2023-03-13T03:23:29.679Z,42.68
2023-03-13T03:26:51.433Z,42.56
2023-03-13T03:30:19.260Z,42.77
2023-03-13T03:33:42.116Z,42.73
2023-03-13T03:37:05.660Z,42.82
2023-03-13T03:40:28.231Z,42.65
2023-03-13T03:43:50.452Z,42.88
2023-03-13T03:47:14.841Z,42.82
2023-03-13T03:50:39.559Z,42.85
2023-03-13T03:54:01.400Z,42.97
2023-03-13T03:57:25.018Z,42.87
2023-03-13T04:00:47.802Z,42.83
2023-03-13T04:04:09.711Z,42.93
2023-03-13T04:07:33.415Z,43.04
2023-03-13T04:10:55.494Z,43.05
2023-03-13T04:14:18.643Z,43.17
2023-03-13T04:17:40.572Z,43.11
2023-03-13T04:21:06.028Z,43.33
2023-03-13T04:24:44.639Z,43.41
2023-03-13T04:28:06.361Z,43.46
2023-03-13T04:31:33.823Z,43.58
2023-03-13T04:35:11.270Z,43.52
2023-03-13T04:38:51.593Z,43.63
2023-03-13T04:42:32.269Z,43.75
2023-03-13T04:46:05.939Z,43.74
2023-03-13T04:49:53.636Z,43.87
2023-03-13T04:53:39.332Z,44.23
2023-03-13T04:57:13.847Z,44.06
2023-03-13T05:00:57.086Z,44.23
2023-03-13T05:04:36.830Z,44.21
2023-03-13T05:08:21.781Z,44.39
2023-03-13T05:11:58.274Z,44.49
2023-03-13T05:15:38.832Z,44.53
2023-03-13T05:19:26.867Z,44.60
2023-03-13T05:23:11.621Z,44.56
2023-03-13T05:26:56.087Z,44.91
2023-03-13T05:30:26.926Z,44.77
2023-03-13T05:34:07.448Z,44.94
2023-03-13T05:37:47.479Z,45.11
2023-03-13T05:41:44.656Z,45.16
2023-03-13T05:45:12.734Z,45.23
2023-03-13T05:48:58.414Z,45.39
2023-03-13T05:52:39.741Z,45.36
2023-03-13T05:56:01.624Z,45.43
2023-03-13T05:59:41.971Z,45.65
2023-03-13T06:03:22.395Z,45.75
2023-03-13T06:06:46.750Z,45.91
2023-03-13T06:10:11.185Z,45.85
2023-03-13T06:13:34.384Z,45.98
2023-03-13T06:17:02.812Z,46.18
2023-03-13T06:20:24.549Z,46.08
2023-03-13T06:23:48.992Z,46.24
2023-03-13T06:27:11.219Z,46.34
2023-03-13T06:30:32.931Z,46.64
2023-03-13T06:33:55.188Z,46.50
2023-03-13T06:37:16.900Z,46.62
2023-03-13T06:40:38.594Z,46.85
2023-03-13T06:44:00.291Z,46.81
2023-03-13T06:47:21.990Z,46.73
2023-03-13T06:50:44.114Z,46.92
2023-03-13T06:54:06.026Z,47.08
2023-03-13T06:57:27.882Z,46.95
2023-03-13T07:00:49.584Z,47.08
2023-03-13T07:04:13.047Z,47.27
2023-03-13T07:07:37.283Z,47.17
2023-03-13T07:11:01.213Z,47.21
2023-03-13T07:14:22.864Z,47.31
2023-03-13T07:17:44.721Z,47.22
2023-03-13T07:21:06.526Z,47.30
2023-03-13T07:24:28.252Z,47.29
2023-03-13T07:27:52.538Z,47.38
2023-03-13T07:31:22.027Z,47.33
2023-03-13T07:34:46.862Z,47.33
2023-03-13T07:38:08.538Z,47.34
2023-03-13T07:41:30.257Z,47.47
2023-03-13T07:44:53.341Z,47.49
2023-03-13T07:48:14.974Z,47.48
2023-03-13T07:51:43.661Z,47.11
2023-03-13T07:55:06.551Z,47.16
2023-03-13T07:58:32.412Z,47.16
2023-03-13T08:01:54.384Z,47.28
2023-03-13T08:05:16.195Z,46.99
2023-03-13T08:08:39.202Z,47.07
2023-03-13T08:12:00.857Z,47.01
2023-03-13T08:15:26.144Z,46.96
2023-03-13T08:18:50.496Z,46.96
2023-03-13T08:22:12.210Z,46.53
2023-03-13T08:25:33.942Z,46.64
2023-03-13T08:29:06.930Z,46.41
2023-03-13T08:32:28.943Z,46.32
2023-03-13T08:35:50.754Z,46.50
2023-03-13T08:39:14.591Z,46.26
2023-03-13T08:42:37.565Z,46.40
2023-03-13T08:45:59.340Z,46.48
2023-03-13T08:49:21.087Z,46.08
2023-03-13T08:52:44.790Z,46.00
2023-03-13T08:56:09.717Z,46.23
2023-03-13T08:59:31.463Z,46.45
2023-03-13T09:02:53.217Z,46.45
2023-03-13T09:06:15.061Z,47.16
2023-03-13T09:09:36.999Z,47.22
2023-03-13T09:12:58.827Z,46.86
2023-03-13T09:16:22.713Z,46.66
2023-03-13T09:19:59.181Z,46.70
2023-03-13T09:23:22.348Z,46.82
2023-03-13T09:26:58.557Z,46.62
2023-03-13T09:30:22.487Z,46.39
2023-03-13T09:33:45.234Z,45.97
2023-03-13T09:37:07.268Z,45.92
2023-03-13T09:40:29.073Z,45.94
2023-03-13T09:44:13.141Z,45.66
2023-03-13T09:47:51.023Z,45.70
2023-03-13T09:51:21.923Z,45.40
2023-03-13T09:54:59.746Z,45.53
2023-03-13T09:58:24.604Z,45.83
2023-03-13T10:01:47.835Z,46.14
2023-03-13T10:05:09.803Z,46.08
2023-03-13T10:08:33.819Z,46.28
2023-03-13T10:12:18.991Z,46.29
2023-03-13T10:15:56.139Z,46.53
2023-03-13T10:19:22.287Z,46.40
2023-03-13T10:22:46.387Z,46.58
2023-03-13T10:26:17.854Z,46.73
2023-03-13T10:29:40.147Z,46.97
2023-03-13T10:33:17.050Z,47.10
2023-03-13T10:36:50.135Z,47.33
2023-03-13T10:40:25.470Z,47.42
2023-03-13T10:43:52.800Z,47.82
2023-03-13T10:47:15.157Z,48.20
2023-03-13T10:50:37.146Z,48.53
2023-03-13T10:53:58.863Z,48.69
2023-03-13T10:57:36.452Z,49.10
2023-03-13T11:01:17.188Z,49.33
2023-03-13T11:04:39.289Z,49.58
2023-03-13T11:08:22.731Z,49.71
2023-03-13T11:12:10.470Z,49.61
2023-03-13T11:15:46.550Z,49.62
2023-03-13T11:19:29.961Z,50.37
2023-03-13T11:23:00.438Z,50.02
2023-03-13T11:27:05.136Z,49.59
2023-03-13T11:34:46.408Z,48.87
2023-03-13T11:38:22.238Z,48.46
2023-03-13T11:41:44.003Z,48.14
2023-03-13T11:45:14.423Z,47.85
2023-03-13T11:48:51.821Z,47.56
2023-03-13T11:52:24.768Z,47.07
2023-03-13T11:55:51.897Z,46.73
2023-03-13T11:59:22.250Z,46.47
2023-03-13T12:03:04.956Z,46.44
2023-03-13T12:06:31.883Z,46.39
2023-03-13T12:10:00.561Z,46.38
2023-03-13T12:13:35.951Z,46.68
2023-03-13T12:17:01.380Z,46.67
2023-03-13T12:20:27.491Z,46.67
2023-03-13T12:23:56.120Z,46.98
2023-03-13T12:27:51.903Z,47.20
2023-03-13T12:31:37.116Z,47.32
2023-03-13T12:35:20.438Z,47.55
2023-03-13T12:38:58.625Z,47.67
2023-03-13T12:42:40.096Z,47.81
2023-03-13T12:46:01.932Z,48.25
2023-03-13T12:49:32.603Z,48.45
2023-03-13T12:53:28.064Z,48.69
2023-03-13T12:56:56.025Z,48.87
2023-03-13T13:00:22.116Z,49.30
2023-03-13T13:03:57.514Z,49.63
2023-03-13T13:07:29.618Z,49.96
2023-03-13T13:10:51.326Z,50.42
2023-03-13T13:14:19.246Z,50.93
2023-03-13T13:18:14.761Z,51.33
2023-03-13T13:21:38.281Z,51.91
2023-03-13T13:25:06.195Z,52.32
2023-03-13T13:28:37.497Z,52.83
2023-03-13T13:32:01.629Z,53.24
2023-03-13T13:35:34.830Z,53.72
2023-03-13T13:38:59.343Z,54.16
2023-03-13T13:42:33.031Z,54.52
2023-03-13T13:46:16.350Z,55.12
2023-03-13T13:49:53.096Z,55.54
2023-03-13T13:53:31.542Z,56.24
2023-03-13T13:57:02.687Z,56.52
2023-03-13T14:00:29.733Z,57.07
2023-03-13T14:03:54.842Z,57.49
2023-03-13T14:07:32.970Z,57.86
2023-03-13T14:11:05.131Z,58.20
2023-03-13T14:14:26.910Z,58.31
2023-03-13T14:18:00.608Z,58.72
2023-03-13T14:21:25.072Z,58.67
2023-03-13T14:24:57.704Z,58.79
2023-03-13T14:28:25.481Z,58.98
2023-03-13T14:31:54.894Z,59.27
2023-03-13T14:35:22.045Z,59.35
2023-03-13T14:39:01.586Z,59.47
2023-03-13T14:42:23.503Z,59.58
2023-03-13T14:45:45.697Z,59.80
2023-03-13T14:49:14.990Z,60.15
2023-03-13T14:52:39.946Z,60.28
2023-03-13T14:56:19.168Z,60.69
2023-03-13T14:59:43.928Z,60.91
2023-03-13T15:03:19.073Z,60.95
2023-03-13T15:06:41.006Z,60.96
2023-03-13T15:10:17.444Z,60.95
2023-03-13T15:13:41.970Z,60.95
2023-03-13T15:17:04.476Z,61.15
2023-03-13T15:20:26.168Z,60.90
2023-03-13T15:23:59.184Z,60.83
2023-03-13T15:27:23.643Z,60.76
2023-03-13T15:30:47.397Z,60.76
2023-03-13T15:34:13.309Z,60.95
2023-03-13T15:37:37.116Z,60.86
2023-03-13T15:40:58.944Z,60.97
2023-03-13T15:44:20.670Z,60.81
2023-03-13T15:47:42.435Z,60.92
2023-03-13T15:54:40.274Z,61.17
2023-03-13T15:58:03.032Z,60.89
2023-03-13T16:01:25.107Z,60.62
2023-03-13T16:04:47.247Z,60.25
2023-03-13T16:08:36.803Z,60.00
2023-03-13T16:11:59.006Z,60.04
2023-03-13T16:15:21.451Z,59.57
2023-03-13T16:18:43.217Z,59.22
2023-03-13T16:22:05.091Z,58.90
2023-03-13T16:25:26.955Z,58.68
2023-03-13T16:28:49.285Z,58.33
2023-03-13T16:32:15.791Z,58.28
2023-03-13T16:35:38.600Z,57.96
2023-03-13T16:39:05.810Z,57.76
2023-03-13T16:42:27.576Z,57.62
2023-03-13T16:45:49.379Z,57.52
2023-03-13T16:49:14.937Z,57.22
2023-03-13T16:52:37.182Z,57.06
2023-03-13T16:55:59.332Z,57.01
2023-03-13T16:59:23.326Z,56.87
2023-03-13T17:02:45.814Z,56.79
2023-03-13T17:06:13.990Z,56.69
2023-03-13T17:09:35.802Z,56.49
2023-03-13T17:12:57.792Z,56.49
2023-03-13T17:16:25.041Z,56.38
2023-03-13T17:19:48.223Z,56.30
2023-03-13T17:23:10.307Z,56.16
2023-03-13T17:26:37.131Z,56.04
2023-03-13T17:29:59.133Z,56.05
2023-03-13T17:33:21.138Z,56.02
2023-03-13T17:36:43.669Z,55.88
2023-03-13T17:40:16.164Z,55.81
2023-03-13T17:43:40.808Z,55.81
2023-03-13T17:47:02.720Z,55.72
2023-03-13T17:50:27.338Z,55.61
2023-03-13T17:53:50.441Z,55.50
2023-03-13T17:57:15.999Z,55.40
2023-03-13T18:00:38.036Z,55.31
2023-03-13T18:04:00.751Z,55.31
2023-03-13T18:07:27.807Z,55.10
2023-03-13T18:10:49.654Z,55.07
2023-03-13T18:14:11.905Z,55.08
2023-03-13T18:17:33.813Z,54.93
2023-03-13T18:20:55.556Z,54.90
2023-03-13T18:24:18.054Z,54.86
2023-03-13T18:27:40.302Z,54.63
2023-03-13T18:31:02.238Z,54.63
2023-03-13T18:34:25.091Z,54.61
2023-03-13T18:37:47.882Z,54.52
2023-03-13T18:41:11.990Z,54.34
2023-03-13T18:44:34.231Z,54.23
2023-03-13T18:47:56.336Z,54.30
2023-03-13T18:51:19.637Z,54.14
2023-03-13T18:54:41.673Z,53.96
2023-03-13T18:58:03.452Z,53.96
2023-03-13T19:01:29.574Z,53.94
2023-03-13T19:04:52.033Z,53.90
2023-03-13T19:08:14.016Z,53.84
2023-03-13T19:11:35.848Z,53.73
2023-03-13T19:14:57.835Z,53.57
2023-03-13T19:18:19.662Z,53.55
2023-03-13T19:21:41.548Z,53.48
2023-03-13T19:25:04.115Z,53.26
2023-03-13T19:28:26.000Z,53.24
2023-03-13T19:31:47.831Z,53.21
2023-03-13T19:35:09.851Z,53.14
2023-03-13T19:38:31.632Z,53.08
2023-03-13T19:41:53.957Z,52.95
2023-03-13T19:45:20.533Z,53.02
2023-03-13T19:48:42.386Z,52.86
2023-03-13T19:52:04.264Z,52.81
2023-03-13T19:55:26.155Z,52.76
2023-03-13T19:58:50.015Z,52.74
2023-03-13T20:02:11.963Z,52.63
2023-03-13T20:05:33.814Z,52.58
2023-03-13T20:08:57.187Z,52.59
2023-03-13T20:12:19.261Z,52.52
2023-03-13T20:15:42.345Z,52.37
2023-03-13T20:19:04.781Z,52.36
2023-03-13T20:22:27.626Z,52.27
2023-03-13T20:25:49.486Z,52.18
2023-03-13T20:29:11.306Z,52.18
2023-03-13T20:32:33.367Z,52.04
2023-03-13T20:36:00.318Z,52.08
2023-03-13T20:39:24.012Z,52.14
2023-03-13T20:42:45.952Z,51.94
2023-03-13T20:46:10.402Z,51.98
2023-03-13T20:49:32.274Z,51.85
2023-03-13T20:52:55.588Z,51.83
2023-03-13T20:56:18.014Z,51.89
2023-03-13T20:59:41.298Z,51.67
2023-03-13T21:03:03.015Z,51.67
2023-03-13T21:06:24.725Z,51.70
2023-03-13T21:09:46.371Z,51.71
2023-03-13T21:13:09.478Z,51.63
2023-03-13T21:16:31.726Z,51.56
2023-03-13T21:19:53.668Z,51.48
2023-03-13T21:23:16.286Z,51.54
2023-03-13T21:26:38.053Z,51.44
2023-03-13T21:30:00.544Z,51.39
2023-03-13T21:33:22.444Z,51.44
2023-03-13T21:36:44.113Z,51.39
2023-03-13T21:40:06.772Z,51.25
2023-03-13T21:43:29.202Z,51.33
2023-03-13T21:46:51.810Z,51.24
2023-03-13T21:50:13.931Z,51.28
2023-03-13T21:53:36.315Z,51.24
2023-03-13T21:56:58.277Z,51.12
2023-03-13T22:00:20.284Z,51.09
2023-03-13T22:03:42.723Z,51.13
2023-03-13T22:07:04.995Z,51.21
2023-03-13T22:10:26.716Z,51.07
2023-03-13T22:13:48.418Z,51.16
2023-03-13T22:17:16.818Z,51.07
2023-03-13T22:20:38.552Z,50.96
2023-03-13T22:24:00.239Z,50.96
2023-03-13T22:27:24.157Z,50.95
2023-03-13T22:30:46.132Z,50.89
2023-03-13T22:34:08.534Z,50.89
2023-03-13T22:37:30.652Z,50.79
2023-03-13T22:41:04.754Z,50.86
2023-03-13T22:44:26.627Z,50.79
2023-03-13T22:47:48.535Z,50.80
2023-03-13T22:51:12.665Z,50.80
2023-03-13T22:54:34.473Z,50.71
2023-03-13T22:57:56.205Z,50.72
2023-03-13T23:01:19.085Z,50.60
2023-03-13T23:04:40.773Z,50.65
2023-03-13T23:08:03.038Z,50.66
2023-03-13T23:11:24.804Z,50.54
2023-03-13T23:14:47.155Z,50.54
2023-03-13T23:18:09.328Z,50.53
2023-03-13T23:21:31.049Z,50.46
2023-03-13T23:24:54.072Z,50.61
2023-03-13T23:28:19.497Z,50.40
2023-03-13T23:31:41.242Z,50.37
2023-03-13T23:35:03.557Z,50.32
2023-03-13T23:38:25.444Z,50.28
2023-03-13T23:41:47.393Z,50.26
2023-03-13T23:45:09.415Z,50.20
2023-03-13T23:48:31.613Z,50.05
2023-03-13T23:51:53.263Z,50.00
2023-03-13T23:55:15.808Z,49.89
2023-03-13T23:58:37.687Z,50.02
